This is the latest recevied weather packets stored in our database for station/object CX2SA-13. If no packets are shown the sender has not sent any weather packets the latest 1 day(s).
| Time | Temp. | Humidity | Pressure | Rain* | Wind** | Luminosity | Snow |
|---|---|---|---|---|---|---|---|
| 1778030085 | 21.67° C | 97% | 1009.4 hPa | 17.02 mm | 0 m/s | - | - |
| 1778029213 | 21.67° C | 97% | 1009.4 hPa | 17.02 mm | 0 m/s | - | - |
| 1778028284 | 21.67° C | 97% | 1009.4 hPa | 17.02 mm | 0.89 m/s, 112° | - | - |
| 1778027385 | 21.67° C | 97% | 1008.8 hPa | 17.02 mm | 0.45 m/s, 112° | - | - |
| 1778026484 | 21.67° C | 97% | 1008.8 hPa | 17.02 mm | 1.79 m/s, 112° | - | - |
| 1778025585 | 21.67° C | 97% | 1008.8 hPa | 17.02 mm | 0.89 m/s, 112° | - | - |
| 1778023784 | 22.22° C | 97% | 1008.8 hPa | 17.02 mm | 0 m/s | - | - |
| 1778022885 | 22.22° C | 96% | 1008.8 hPa | 17.02 mm | 0.89 m/s, 112° | - | - |
| 1778021983 | 22.22° C | 96% | 1008.8 hPa | 17.02 mm | 0.89 m/s, 112° | - | - |
| 1778021084 | 22.22° C | 96% | 1008.8 hPa | 17.02 mm | 0 m/s | - | - |
| 1778020185 | 22.22° C | 95% | 1008.4 hPa | 16.26 mm | 2.24 m/s, 247° | - | - |
| 1778019283 | 22.78° C | 94% | 1008.4 hPa | 13.97 mm | 0.89 m/s, 315° | - | - |
| 1778018384 | 22.78° C | 94% | 1008.1 hPa | 13.72 mm | 2.68 m/s, 90° | - | - |
| 1778017485 | 22.78° C | 94% | 1008.1 hPa | 13.21 mm | 0.89 m/s, 90° | - | - |
| 1778016584 | 22.78° C | 94% | 1008.1 hPa | 13.21 mm | 3.13 m/s, 112° | - | - |
| 1778015685 | 22.22° C | 94% | 1008.4 hPa | 13.21 mm | 2.24 m/s, 112° | - | - |
| 1778014785 | 22.22° C | 95% | 1008.4 hPa | 13.21 mm | 2.24 m/s, 67° | - | - |
| 1778013884 | 22.78° C | 95% | 1008.8 hPa | 13.21 mm | 2.68 m/s, 90° | - | - |
| 1778012985 | 23.33° C | 95% | 1009.1 hPa | 13.21 mm | 0.89 m/s, 22° | - | - |
| 1778012086 | 23.33° C | 94% | 1008.8 hPa | 13.21 mm | 1.34 m/s, 90° | - | - |
| 1778011184 | 23.33° C | 94% | 1009.4 hPa | 9.4 mm | 2.68 m/s, 337° | - | - |
| 1778010285 | 28.33° C | 76% | 1008.8 hPa | 0 mm | 0.89 m/s, 360° | - | - |
| 1778009383 | 28.89° C | 74% | 1008.4 hPa | 0 mm | 1.79 m/s, 45° | - | - |
| 1778008484 | 29.44° C | 72% | 1008.4 hPa | 0 mm | 2.24 m/s, 45° | - | - |
| 1778007585 | 30° C | 71% | 1008.4 hPa | 0 mm | 2.68 m/s, 22° | - | - |
* Rain since midnight (hover to see other rain measurements)
** Current wind speed in m/s (hover to see current wind gust speed)